Thunder radar more information blitzortung!


Rain radar more information rain snow radar


altri nostri siti meteo:

PomeziameteoStazione ufficiale di Pomezia

MeteopomeziaSito sulle condizioni meteo



Nessuna attenzione particolare richiesta.    Non ci sono allerte meteo

Report METAR

   
LIMP - Parma
Dati ricevuti: 25-11-2017 11:50
Nebbia, Coperto  
Nebbia, Coperto  
   Vento: Oriente 9.3 km/h
Vento: Oriente 9.3 km/h
Temperatura: 9°C
Temperatura Vento: 8°C
P.to Rugiada: 9°C
Umidità: 100%
Barometro: 1013 hPa
Nuvole: Coperto
Visibilità: 1 km
dettagli cloud: Coperto 400 ft
LIMP 251050Z 08005KT 0500 R20/1300N FG OVC004 09/09 Q1013
LIPE - Bologna
Dati ricevuti: 25-11-2017 12:20
Nebbia, Parzialmente nuvoloso  
Nebbia, Parzialmente nuvoloso  
   Vento: Oriente 9.3 km/h
Vento: Oriente 9.3 km/h
Temperatura: 10°C
Temperatura Vento: 9°C
P.to Rugiada: 9°C
Umidità: 94%
Barometro: 1012 hPa
Nuvole: Parzialmente nuvoloso
Visibilità: 1 km
dettagli cloud: Poche nuvole 200 ft,
Parzialmente nuvoloso 5000 ft
LIPE 251120Z 09005KT 050V110 1100 R12/1600V1700N BR FEW002 SCT050 10/09 Q1012
LIPO - Brescia/Montichi
Dati ricevuti: 25-11-2017 11:50
Pioggia, Nebbia, Molto nuvoloso  
Pioggia, Nebbia, Molto nuvoloso  
   Vento: NE 9.3 km/h
Vento: NE 9.3 km/h
Temperatura: 9°C
Temperatura Vento: 8°C
P.to Rugiada: 8°C
Umidità: 94%
Barometro: 1013 hPa
Nuvole: Molto nuvoloso
Visibilità: 1 km
dettagli cloud: Parzialmente nuvoloso 1000 ft,
Molto nuvoloso 2000 ft
LIPO 251050Z 04005KT 1000 R32/1900N RA BR SCT010 BKN020 09/08 Q1013
LIPF - Ferrara
Dati ricevuti: 25-11-2017 11:55
Nebbia, Molto nuvoloso  
Nebbia, Molto nuvoloso  
   Vento: Oriente 9.3 km/h
Vento: Oriente 9.3 km/h
Temperatura: 11°C
P.to Rugiada: 8°C
Umidità: 82%
Barometro: 1013 hPa
Nuvole: Molto nuvoloso
Visibilità: 1 km
dettagli cloud: Parzialmente nuvoloso 300 ft,
Molto nuvoloso 2000 ft
LIPF 251055Z 08005KT 1200 BR SCT003 BKN020 11/08 Q1013
LIPL - Ghedi
Dati ricevuti: 25-11-2017 11:55
Pioggia leggera, Nebbia, Molto nuvoloso  
Pioggia leggera, Nebbia, Molto nuvoloso  
   Vento: Variabile calma
Vento: Variabile calma
Temperatura: 9°C
P.to Rugiada: 9°C
Umidità: 100%
Barometro: 1014 hPa
Nuvole: Molto nuvoloso
Visibilità: 2 km
dettagli cloud: Poche nuvole 1500 ft,
Molto nuvoloso 3000 ft
LIPL 251055Z /////KT 1500 -RA BR FEW015 BKN030 09/09 Q1014 RMK OVC VIS MIN 1500 WIND THR31 07004KT AMB
LIVC - Monte Cimone
Dati ricevuti: 25-11-2017 11:55
Nebbia, Coperto  
Nebbia, Coperto  
   Vento: SE 16.7 km/h<br />Gust to 16.7 km/h
Vento: SE 16.7 km/h
Gust to 16.7 km/h
Temperatura: 1°C
Temperatura Vento: -3°C
P.to Rugiada: 1°C
Umidità: 100%
Barometro: 1013 hPa
Nuvole: Coperto
Visibilità: 0 km
dettagli cloud: Coperto
LIVC 251055Z 12009G23KT 0000 FG VV000 01/01 Q1013 RMK MON INVIS VAL INVIS VIS MIN 0000
LIMS - Piacenza
Dati ricevuti: 25-11-2017 11:55
Deboli piogge, Nebbia, Coperto  
Deboli piogge, Nebbia, Coperto  
   Vento: Oriente 5.6 km/h
Vento: Oriente 5.6 km/h
Temperatura: 8°C
Temperatura Vento: 7°C
P.to Rugiada: 8°C
Umidità: 100%
Barometro: 1011 hPa
Nuvole: Coperto
Visibilità: 0 km
dettagli cloud: Coperto 200 ft
LIMS 251055Z 10003KT 0200 R30/0500 R12/0400 -DZ FG VV002 08/08 Q1011
LIMT - Passo della Cisa
Dati ricevuti: 24-11-2017 17:55
DATI Obsoleti
Nebbia  
Nebbia  
   Vento: SW 9.3 km/h
Vento: SW 9.3 km/h
Temperatura: 7°C
Temperatura Vento: 5°C
P.to Rugiada: 5°C
Umidità: 87%
Barometro: 1019 hPa
Visibilità: 0 km
dettagli cloud: Coperto
LIMT 241655Z 22005KT 0200 FG VV/// 07/05 Q1019 RMK MON INVIS VAL INVIS VIS MIN 0200
LIPU - Padova
Dati ricevuti: 25-11-2017 08:00
DATI Obsoleti
Nebbia, Parzialmente nuvoloso  
Nebbia, Parzialmente nuvoloso  
   Vento: Variabile 3.7 km/h
Vento: Variabile 3.7 km/h
Temperatura: 8°C
P.to Rugiada: 6°C
Umidità: 87%
Barometro: 1016 hPa
Nuvole: Parzialmente nuvoloso
Visibilità: 4 km
dettagli cloud: Parzialmente nuvoloso
LIPU 250700Z VRB02KT 4000 BR NSC 08/06 Q1016

Script sviluppato da  Saratoga-weather.org Adattato per il modello da  Weerstation Leuven

Strumentazione usata:

Stazione meteo
Davis VP2

Programma gestore dati meteo
WVIEW

Server per i dati meteo
Pc-WDS5

Davis VP2

WVIEW

Pc-WDS5